sensor_id;sensor_type;location;lat;lon;timestamp;P1;durP1;ratioP1;P2;durP2;ratioP2
7659;SDS011;3872;47.902;8.162;2022-08-07T00:01:23;9.30;;;5.80;;
7659;SDS011;3872;47.902;8.162;2022-08-07T00:03:50;10.23;;;4.90;;
7659;SDS011;3872;47.902;8.162;2022-08-07T00:06:18;8.70;;;4.87;;
7659;SDS011;3872;47.902;8.162;2022-08-07T00:08:45;7.50;;;5.03;;
7659;SDS011;3872;47.902;8.162;2022-08-07T00:11:11;6.83;;;3.93;;
7659;SDS011;3872;47.902;8.162;2022-08-07T00:13:38;8.20;;;4.63;;
7659;SDS011;3872;47.902;8.162;2022-08-07T00:16:06;9.10;;;5.10;;
7659;SDS011;3872;47.902;8.162;2022-08-07T00:18:33;6.90;;;4.47;;
7659;SDS011;3872;47.902;8.162;2022-08-07T00:21:02;7.70;;;4.20;;
7659;SDS011;3872;47.902;8.162;2022-08-07T00:23:31;8.20;;;4.97;;
7659;SDS011;3872;47.902;8.162;2022-08-07T00:26:00;7.87;;;4.70;;
7659;SDS011;3872;47.902;8.162;2022-08-07T00:28:27;8.97;;;5.50;;
7659;SDS011;3872;47.902;8.162;2022-08-07T00:30:54;9.80;;;5.47;;
7659;SDS011;3872;47.902;8.162;2022-08-07T00:33:21;8.57;;;5.50;;
7659;SDS011;3872;47.902;8.162;2022-08-07T00:35:50;10.43;;;5.90;;
7659;SDS011;3872;47.902;8.162;2022-08-07T00:38:17;9.30;;;5.00;;
7659;SDS011;3872;47.902;8.162;2022-08-07T00:40:45;11.03;;;5.03;;
7659;SDS011;3872;47.902;8.162;2022-08-07T00:43:12;7.90;;;5.27;;
7659;SDS011;3872;47.902;8.162;2022-08-07T00:45:41;8.60;;;5.13;;
7659;SDS011;3872;47.902;8.162;2022-08-07T00:48:09;8.50;;;5.27;;
7659;SDS011;3872;47.902;8.162;2022-08-07T00:50:36;8.53;;;5.10;;
7659;SDS011;3872;47.902;8.162;2022-08-07T00:53:04;7.10;;;4.43;;
7659;SDS011;3872;47.902;8.162;2022-08-07T00:55:30;8.20;;;4.70;;
7659;SDS011;3872;47.902;8.162;2022-08-07T00:57:58;7.33;;;4.33;;
7659;SDS011;3872;47.902;8.162;2022-08-07T01:00:26;9.30;;;4.63;;
7659;SDS011;3872;47.902;8.162;2022-08-07T01:02:53;12.43;;;4.90;;
7659;SDS011;3872;47.902;8.162;2022-08-07T01:05:19;7.10;;;4.30;;
7659;SDS011;3872;47.902;8.162;2022-08-07T01:07:46;7.60;;;4.57;;
7659;SDS011;3872;47.902;8.162;2022-08-07T01:10:13;8.87;;;5.90;;
7659;SDS011;3872;47.902;8.162;2022-08-07T01:12:41;9.53;;;5.47;;
7659;SDS011;3872;47.902;8.162;2022-08-07T01:15:09;14.03;;;5.33;;
7659;SDS011;3872;47.902;8.162;2022-08-07T01:17:37;9.73;;;5.57;;
7659;SDS011;3872;47.902;8.162;2022-08-07T01:20:04;8.70;;;5.80;;
7659;SDS011;3872;47.902;8.162;2022-08-07T01:22:34;6.47;;;4.03;;
7659;SDS011;3872;47.902;8.162;2022-08-07T01:25:02;17.30;;;5.43;;
7659;SDS011;3872;47.902;8.162;2022-08-07T01:27:30;9.83;;;5.20;;
7659;SDS011;3872;47.902;8.162;2022-08-07T01:29:56;9.90;;;5.30;;
7659;SDS011;3872;47.902;8.162;2022-08-07T01:32:23;12.20;;;6.23;;
7659;SDS011;3872;47.902;8.162;2022-08-07T01:34:52;10.00;;;5.80;;
7659;SDS011;3872;47.902;8.162;2022-08-07T01:37:19;6.50;;;4.13;;
7659;SDS011;3872;47.902;8.162;2022-08-07T01:39:50;8.43;;;5.13;;
7659;SDS011;3872;47.902;8.162;2022-08-07T01:42:24;8.73;;;5.80;;
7659;SDS011;3872;47.902;8.162;2022-08-07T01:44:52;8.70;;;5.23;;
7659;SDS011;3872;47.902;8.162;2022-08-07T01:47:19;8.57;;;5.17;;
7659;SDS011;3872;47.902;8.162;2022-08-07T01:49:46;10.53;;;6.30;;
7659;SDS011;3872;47.902;8.162;2022-08-07T01:52:13;11.53;;;5.67;;
7659;SDS011;3872;47.902;8.162;2022-08-07T01:54:40;7.40;;;5.10;;
7659;SDS011;3872;47.902;8.162;2022-08-07T01:57:14;9.43;;;4.60;;
7659;SDS011;3872;47.902;8.162;2022-08-07T01:59:46;7.40;;;4.67;;
7659;SDS011;3872;47.902;8.162;2022-08-07T02:02:19;9.80;;;5.20;;
7659;SDS011;3872;47.902;8.162;2022-08-07T02:04:52;11.67;;;6.77;;
7659;SDS011;3872;47.902;8.162;2022-08-07T02:07:28;9.20;;;5.80;;
7659;SDS011;3872;47.902;8.162;2022-08-07T02:09:57;10.63;;;5.30;;
7659;SDS011;3872;47.902;8.162;2022-08-07T02:12:30;10.90;;;5.40;;
7659;SDS011;3872;47.902;8.162;2022-08-07T02:15:02;9.20;;;5.43;;
7659;SDS011;3872;47.902;8.162;2022-08-07T02:17:33;9.10;;;5.97;;
7659;SDS011;3872;47.902;8.162;2022-08-07T02:20:03;8.23;;;4.90;;
7659;SDS011;3872;47.902;8.162;2022-08-07T02:22:30;9.20;;;5.93;;
7659;SDS011;3872;47.902;8.162;2022-08-07T02:24:58;14.40;;;4.97;;
7659;SDS011;3872;47.902;8.162;2022-08-07T02:27:25;7.63;;;5.30;;
7659;SDS011;3872;47.902;8.162;2022-08-07T02:29:55;9.57;;;5.97;;
7659;SDS011;3872;47.902;8.162;2022-08-07T02:32:30;7.80;;;4.80;;
7659;SDS011;3872;47.902;8.162;2022-08-07T02:35:00;10.50;;;5.93;;
7659;SDS011;3872;47.902;8.162;2022-08-07T02:37:30;7.50;;;5.03;;
7659;SDS011;3872;47.902;8.162;2022-08-07T02:39:59;10.03;;;5.30;;
7659;SDS011;3872;47.902;8.162;2022-08-07T02:42:28;9.90;;;4.40;;
7659;SDS011;3872;47.902;8.162;2022-08-07T02:44:58;6.80;;;4.17;;
7659;SDS011;3872;47.902;8.162;2022-08-07T02:47:27;7.03;;;4.60;;
7659;SDS011;3872;47.902;8.162;2022-08-07T02:50:02;8.37;;;5.00;;
7659;SDS011;3872;47.902;8.162;2022-08-07T02:52:33;10.07;;;4.90;;
7659;SDS011;3872;47.902;8.162;2022-08-07T02:55:04;10.30;;;5.20;;
7659;SDS011;3872;47.902;8.162;2022-08-07T02:57:35;7.80;;;4.90;;
7659;SDS011;3872;47.902;8.162;2022-08-07T03:00:04;11.57;;;5.03;;
7659;SDS011;3872;47.902;8.162;2022-08-07T03:02:33;8.87;;;5.30;;
7659;SDS011;3872;47.902;8.162;2022-08-07T03:05:03;9.90;;;5.27;;
7659;SDS011;3872;47.902;8.162;2022-08-07T03:07:32;8.70;;;5.30;;
7659;SDS011;3872;47.902;8.162;2022-08-07T03:09:59;9.30;;;6.33;;
7659;SDS011;3872;47.902;8.162;2022-08-07T03:12:26;9.10;;;5.80;;
7659;SDS011;3872;47.902;8.162;2022-08-07T03:14:55;12.10;;;6.23;;
7659;SDS011;3872;47.902;8.162;2022-08-07T03:17:23;9.47;;;5.17;;
7659;SDS011;3872;47.902;8.162;2022-08-07T03:19:53;8.40;;;5.40;;
7659;SDS011;3872;47.902;8.162;2022-08-07T03:22:21;7.60;;;4.80;;
7659;SDS011;3872;47.902;8.162;2022-08-07T03:24:49;9.00;;;4.83;;
7659;SDS011;3872;47.902;8.162;2022-08-07T03:27:17;9.00;;;5.50;;
7659;SDS011;3872;47.902;8.162;2022-08-07T03:29:46;7.87;;;5.03;;
7659;SDS011;3872;47.902;8.162;2022-08-07T03:32:19;9.90;;;4.87;;
7659;SDS011;3872;47.902;8.162;2022-08-07T03:34:52;8.87;;;5.20;;
7659;SDS011;3872;47.902;8.162;2022-08-07T03:37:21;8.70;;;5.47;;
7659;SDS011;3872;47.902;8.162;2022-08-07T03:39:49;9.47;;;5.20;;
7659;SDS011;3872;47.902;8.162;2022-08-07T03:42:17;13.30;;;6.03;;
7659;SDS011;3872;47.902;8.162;2022-08-07T03:44:45;7.90;;;4.90;;
7659;SDS011;3872;47.902;8.162;2022-08-07T03:47:13;9.20;;;5.33;;
7659;SDS011;3872;47.902;8.162;2022-08-07T03:49:45;8.80;;;5.60;;
7659;SDS011;3872;47.902;8.162;2022-08-07T03:52:13;9.10;;;5.80;;
7659;SDS011;3872;47.902;8.162;2022-08-07T03:54:42;10.77;;;5.50;;
7659;SDS011;3872;47.902;8.162;2022-08-07T03:57:09;9.77;;;6.00;;
7659;SDS011;3872;47.902;8.162;2022-08-07T03:59:38;8.03;;;5.33;;
7659;SDS011;3872;47.902;8.162;2022-08-07T04:02:06;8.50;;;5.33;;
7659;SDS011;3872;47.902;8.162;2022-08-07T04:04:33;9.37;;;5.27;;
7659;SDS011;3872;47.902;8.162;2022-08-07T04:07:04;10.17;;;6.07;;
7659;SDS011;3872;47.902;8.162;2022-08-07T04:09:34;8.63;;;5.70;;
7659;SDS011;3872;47.902;8.162;2022-08-07T04:12:02;9.73;;;5.13;;
7659;SDS011;3872;47.902;8.162;2022-08-07T04:14:29;8.37;;;5.07;;
7659;SDS011;3872;47.902;8.162;2022-08-07T04:16:57;9.83;;;5.80;;
7659;SDS011;3872;47.902;8.162;2022-08-07T04:19:24;7.80;;;5.37;;
7659;SDS011;3872;47.902;8.162;2022-08-07T04:21:52;11.33;;;6.23;;
7659;SDS011;3872;47.902;8.162;2022-08-07T04:24:19;8.60;;;5.53;;
7659;SDS011;3872;47.902;8.162;2022-08-07T04:26:48;8.90;;;5.47;;
7659;SDS011;3872;47.902;8.162;2022-08-07T04:29:15;8.50;;;6.00;;
7659;SDS011;3872;47.902;8.162;2022-08-07T04:31:42;9.20;;;5.90;;
7659;SDS011;3872;47.902;8.162;2022-08-07T04:34:09;9.67;;;5.67;;
7659;SDS011;3872;47.902;8.162;2022-08-07T04:36:36;8.90;;;5.67;;
7659;SDS011;3872;47.902;8.162;2022-08-07T04:39:04;8.00;;;5.20;;
7659;SDS011;3872;47.902;8.162;2022-08-07T04:41:30;9.17;;;4.93;;
7659;SDS011;3872;47.902;8.162;2022-08-07T04:43:58;8.57;;;5.70;;
7659;SDS011;3872;47.902;8.162;2022-08-07T04:46:35;8.17;;;5.43;;
7659;SDS011;3872;47.902;8.162;2022-08-07T04:49:09;8.43;;;4.57;;
7659;SDS011;3872;47.902;8.162;2022-08-07T04:51:43;9.87;;;6.30;;
7659;SDS011;3872;47.902;8.162;2022-08-07T04:54:17;9.20;;;6.40;;
7659;SDS011;3872;47.902;8.162;2022-08-07T04:56:50;8.20;;;4.73;;
7659;SDS011;3872;47.902;8.162;2022-08-07T04:59:25;9.00;;;5.77;;
7659;SDS011;3872;47.902;8.162;2022-08-07T05:01:57;9.33;;;5.83;;
7659;SDS011;3872;47.902;8.162;2022-08-07T05:04:30;9.13;;;6.23;;
7659;SDS011;3872;47.902;8.162;2022-08-07T05:07:06;11.20;;;6.33;;
7659;SDS011;3872;47.902;8.162;2022-08-07T05:09:41;11.37;;;6.10;;
7659;SDS011;3872;47.902;8.162;2022-08-07T05:12:21;11.80;;;6.20;;
7659;SDS011;3872;47.902;8.162;2022-08-07T05:14:55;11.00;;;7.20;;
7659;SDS011;3872;47.902;8.162;2022-08-07T05:17:41;10.20;;;6.80;;
7659;SDS011;3872;47.902;8.162;2022-08-07T05:20:12;12.40;;;7.00;;
7659;SDS011;3872;47.902;8.162;2022-08-07T05:22:42;10.40;;;6.50;;
7659;SDS011;3872;47.902;8.162;2022-08-07T05:25:10;11.43;;;6.30;;
7659;SDS011;3872;47.902;8.162;2022-08-07T05:27:40;11.83;;;6.90;;
7659;SDS011;3872;47.902;8.162;2022-08-07T05:30:09;10.50;;;6.93;;
7659;SDS011;3872;47.902;8.162;2022-08-07T05:32:37;9.17;;;6.23;;
7659;SDS011;3872;47.902;8.162;2022-08-07T05:35:07;12.87;;;7.33;;
7659;SDS011;3872;47.902;8.162;2022-08-07T05:37:36;13.90;;;6.47;;
7659;SDS011;3872;47.902;8.162;2022-08-07T05:40:05;11.50;;;6.40;;
7659;SDS011;3872;47.902;8.162;2022-08-07T05:42:34;11.10;;;6.43;;
7659;SDS011;3872;47.902;8.162;2022-08-07T05:45:04;14.77;;;7.10;;
7659;SDS011;3872;47.902;8.162;2022-08-07T05:47:34;10.63;;;6.60;;
7659;SDS011;3872;47.902;8.162;2022-08-07T05:50:02;10.10;;;6.67;;
7659;SDS011;3872;47.902;8.162;2022-08-07T05:52:31;9.07;;;6.40;;
7659;SDS011;3872;47.902;8.162;2022-08-07T05:54:57;9.70;;;6.70;;
7659;SDS011;3872;47.902;8.162;2022-08-07T05:57:25;12.20;;;6.90;;
7659;SDS011;3872;47.902;8.162;2022-08-07T05:59:52;10.50;;;6.87;;
7659;SDS011;3872;47.902;8.162;2022-08-07T06:02:21;11.63;;;6.57;;
7659;SDS011;3872;47.902;8.162;2022-08-07T06:04:53;11.40;;;7.00;;
7659;SDS011;3872;47.902;8.162;2022-08-07T06:07:22;10.80;;;7.00;;
7659;SDS011;3872;47.902;8.162;2022-08-07T06:09:50;13.20;;;7.90;;
7659;SDS011;3872;47.902;8.162;2022-08-07T06:12:17;11.70;;;8.00;;
7659;SDS011;3872;47.902;8.162;2022-08-07T06:14:45;11.50;;;7.37;;
7659;SDS011;3872;47.902;8.162;2022-08-07T06:17:12;11.00;;;7.10;;
7659;SDS011;3872;47.902;8.162;2022-08-07T06:19:39;13.07;;;8.37;;
7659;SDS011;3872;47.902;8.162;2022-08-07T06:22:10;12.20;;;8.40;;
7659;SDS011;3872;47.902;8.162;2022-08-07T06:24:37;13.00;;;8.70;;
7659;SDS011;3872;47.902;8.162;2022-08-07T06:27:03;17.47;;;9.63;;
7659;SDS011;3872;47.902;8.162;2022-08-07T06:29:32;13.37;;;9.67;;
7659;SDS011;3872;47.902;8.162;2022-08-07T06:31:59;14.37;;;9.37;;
7659;SDS011;3872;47.902;8.162;2022-08-07T06:34:26;15.80;;;9.83;;
7659;SDS011;3872;47.902;8.162;2022-08-07T06:36:54;14.30;;;9.17;;
7659;SDS011;3872;47.902;8.162;2022-08-07T06:39:28;15.60;;;9.20;;
7659;SDS011;3872;47.902;8.162;2022-08-07T06:41:58;16.60;;;10.03;;
7659;SDS011;3872;47.902;8.162;2022-08-07T06:44:57;17.37;;;10.13;;
7659;SDS011;3872;47.902;8.162;2022-08-07T06:47:26;14.33;;;9.40;;
7659;SDS011;3872;47.902;8.162;2022-08-07T06:49:55;17.20;;;10.10;;
7659;SDS011;3872;47.902;8.162;2022-08-07T06:52:22;21.20;;;9.40;;
7659;SDS011;3872;47.902;8.162;2022-08-07T06:54:54;14.27;;;8.57;;
7659;SDS011;3872;47.902;8.162;2022-08-07T06:57:22;15.00;;;8.80;;
7659;SDS011;3872;47.902;8.162;2022-08-07T06:59:51;12.90;;;7.20;;
7659;SDS011;3872;47.902;8.162;2022-08-07T07:02:21;13.87;;;7.90;;
7659;SDS011;3872;47.902;8.162;2022-08-07T07:04:51;11.30;;;7.00;;
7659;SDS011;3872;47.902;8.162;2022-08-07T07:07:19;10.33;;;6.17;;
7659;SDS011;3872;47.902;8.162;2022-08-07T07:09:46;10.70;;;6.80;;
7659;SDS011;3872;47.902;8.162;2022-08-07T07:12:21;11.43;;;6.40;;
7659;SDS011;3872;47.902;8.162;2022-08-07T07:14:55;12.00;;;6.10;;
7659;SDS011;3872;47.902;8.162;2022-08-07T07:17:27;10.17;;;6.33;;
7659;SDS011;3872;47.902;8.162;2022-08-07T07:19:59;10.50;;;5.73;;
7659;SDS011;3872;47.902;8.162;2022-08-07T07:22:30;9.90;;;5.33;;
7659;SDS011;3872;47.902;8.162;2022-08-07T07:24:59;10.07;;;5.37;;
7659;SDS011;3872;47.902;8.162;2022-08-07T07:27:28;7.70;;;4.20;;
7659;SDS011;3872;47.902;8.162;2022-08-07T07:29:59;7.63;;;3.93;;
7659;SDS011;3872;47.902;8.162;2022-08-07T07:32:29;7.53;;;4.60;;
7659;SDS011;3872;47.902;8.162;2022-08-07T07:34:59;7.03;;;3.87;;
7659;SDS011;3872;47.902;8.162;2022-08-07T07:37:28;9.90;;;3.90;;
7659;SDS011;3872;47.902;8.162;2022-08-07T07:39:57;8.03;;;4.37;;
7659;SDS011;3872;47.902;8.162;2022-08-07T07:42:28;6.70;;;3.93;;
7659;SDS011;3872;47.902;8.162;2022-08-07T07:44:57;7.63;;;3.63;;
7659;SDS011;3872;47.902;8.162;2022-08-07T07:47:26;9.10;;;4.40;;
7659;SDS011;3872;47.902;8.162;2022-08-07T07:49:55;7.90;;;4.23;;
7659;SDS011;3872;47.902;8.162;2022-08-07T07:52:23;6.13;;;3.43;;
7659;SDS011;3872;47.902;8.162;2022-08-07T07:54:51;7.50;;;3.87;;
7659;SDS011;3872;47.902;8.162;2022-08-07T07:57:21;6.50;;;3.17;;
7659;SDS011;3872;47.902;8.162;2022-08-07T07:59:50;6.77;;;3.40;;
7659;SDS011;3872;47.902;8.162;2022-08-07T08:02:19;6.87;;;3.57;;
7659;SDS011;3872;47.902;8.162;2022-08-07T08:04:48;7.50;;;3.40;;
7659;SDS011;3872;47.902;8.162;2022-08-07T08:07:16;7.07;;;3.43;;
7659;SDS011;3872;47.902;8.162;2022-08-07T08:09:42;7.80;;;4.07;;
7659;SDS011;3872;47.902;8.162;2022-08-07T08:12:11;6.37;;;3.37;;
7659;SDS011;3872;47.902;8.162;2022-08-07T08:14:39;7.50;;;3.53;;
7659;SDS011;3872;47.902;8.162;2022-08-07T08:17:07;6.40;;;2.77;;
7659;SDS011;3872;47.902;8.162;2022-08-07T08:19:36;7.47;;;3.67;;
7659;SDS011;3872;47.902;8.162;2022-08-07T08:22:04;6.90;;;3.07;;
7659;SDS011;3872;47.902;8.162;2022-08-07T08:24:51;7.13;;;3.60;;
7659;SDS011;3872;47.902;8.162;2022-08-07T08:27:37;8.63;;;3.97;;
7659;SDS011;3872;47.902;8.162;2022-08-07T08:30:08;9.00;;;3.37;;
7659;SDS011;3872;47.902;8.162;2022-08-07T08:32:37;9.50;;;3.30;;
7659;SDS011;3872;47.902;8.162;2022-08-07T08:35:07;6.90;;;3.20;;
7659;SDS011;3872;47.902;8.162;2022-08-07T08:37:35;6.57;;;3.47;;
7659;SDS011;3872;47.902;8.162;2022-08-07T08:40:05;8.93;;;3.10;;
7659;SDS011;3872;47.902;8.162;2022-08-07T08:42:36;6.77;;;3.47;;
7659;SDS011;3872;47.902;8.162;2022-08-07T08:45:09;6.63;;;3.00;;
7659;SDS011;3872;47.902;8.162;2022-08-07T08:47:43;6.57;;;2.80;;
7659;SDS011;3872;47.902;8.162;2022-08-07T08:50:19;8.13;;;3.40;;
7659;SDS011;3872;47.902;8.162;2022-08-07T08:52:48;6.40;;;2.93;;
7659;SDS011;3872;47.902;8.162;2022-08-07T08:55:18;6.80;;;3.00;;
7659;SDS011;3872;47.902;8.162;2022-08-07T08:57:51;6.20;;;2.90;;
7659;SDS011;3872;47.902;8.162;2022-08-07T09:00:26;12.73;;;3.03;;
7659;SDS011;3872;47.902;8.162;2022-08-07T09:02:59;5.40;;;2.73;;
7659;SDS011;3872;47.902;8.162;2022-08-07T09:05:37;7.60;;;2.50;;
7659;SDS011;3872;47.902;8.162;2022-08-07T09:08:17;7.23;;;3.03;;
7659;SDS011;3872;47.902;8.162;2022-08-07T09:10:51;8.67;;;2.80;;
7659;SDS011;3872;47.902;8.162;2022-08-07T09:13:28;6.83;;;2.40;;
7659;SDS011;3872;47.902;8.162;2022-08-07T09:16:03;5.30;;;2.37;;
7659;SDS011;3872;47.902;8.162;2022-08-07T09:18:48;5.10;;;2.23;;
7659;SDS011;3872;47.902;8.162;2022-08-07T09:21:32;5.43;;;2.37;;
7659;SDS011;3872;47.902;8.162;2022-08-07T09:24:02;7.77;;;2.00;;
7659;SDS011;3872;47.902;8.162;2022-08-07T09:26:44;5.03;;;2.10;;
7659;SDS011;3872;47.902;8.162;2022-08-07T09:29:19;5.50;;;2.40;;
7659;SDS011;3872;47.902;8.162;2022-08-07T09:31:54;5.87;;;2.40;;
7659;SDS011;3872;47.902;8.162;2022-08-07T09:34:28;5.03;;;2.00;;
7659;SDS011;3872;47.902;8.162;2022-08-07T09:37:03;4.90;;;2.13;;
7659;SDS011;3872;47.902;8.162;2022-08-07T09:39:40;5.17;;;2.40;;
7659;SDS011;3872;47.902;8.162;2022-08-07T09:42:16;7.30;;;2.40;;
7659;SDS011;3872;47.902;8.162;2022-08-07T09:44:57;5.50;;;2.40;;
7659;SDS011;3872;47.902;8.162;2022-08-07T09:47:36;6.20;;;2.77;;
7659;SDS011;3872;47.902;8.162;2022-08-07T09:50:12;5.77;;;2.53;;
7659;SDS011;3872;47.902;8.162;2022-08-07T09:52:46;5.60;;;2.00;;
7659;SDS011;3872;47.902;8.162;2022-08-07T09:55:14;6.90;;;2.37;;
7659;SDS011;3872;47.902;8.162;2022-08-07T09:57:53;5.20;;;1.97;;
7659;SDS011;3872;47.902;8.162;2022-08-07T10:00:40;5.33;;;2.20;;
7659;SDS011;3872;47.902;8.162;2022-08-07T10:03:26;4.80;;;1.80;;
7659;SDS011;3872;47.902;8.162;2022-08-07T10:12:08;5.40;;;2.10;;
7659;SDS011;3872;47.902;8.162;2022-08-07T10:14:57;5.83;;;2.40;;
7659;SDS011;3872;47.902;8.162;2022-08-07T10:17:40;4.70;;;1.97;;
7659;SDS011;3872;47.902;8.162;2022-08-07T10:20:27;4.70;;;2.10;;
7659;SDS011;3872;47.902;8.162;2022-08-07T10:23:10;5.33;;;2.43;;
7659;SDS011;3872;47.902;8.162;2022-08-07T10:25:56;10.63;;;2.20;;
7659;SDS011;3872;47.902;8.162;2022-08-07T10:28:37;5.23;;;1.87;;
7659;SDS011;3872;47.902;8.162;2022-08-07T10:31:26;5.50;;;2.03;;
7659;SDS011;3872;47.902;8.162;2022-08-07T10:34:04;4.70;;;2.10;;
7659;SDS011;3872;47.902;8.162;2022-08-07T10:36:50;5.50;;;2.23;;
7659;SDS011;3872;47.902;8.162;2022-08-07T10:39:35;4.90;;;2.20;;
7659;SDS011;3872;47.902;8.162;2022-08-07T10:42:11;4.40;;;1.83;;
7659;SDS011;3872;47.902;8.162;2022-08-07T10:44:51;5.70;;;2.40;;
7659;SDS011;3872;47.902;8.162;2022-08-07T10:47:28;5.20;;;2.27;;
7659;SDS011;3872;47.902;8.162;2022-08-07T10:50:04;5.40;;;1.87;;
7659;SDS011;3872;47.902;8.162;2022-08-07T10:52:36;5.87;;;2.07;;
7659;SDS011;3872;47.902;8.162;2022-08-07T10:55:13;5.73;;;2.27;;
7659;SDS011;3872;47.902;8.162;2022-08-07T10:57:44;4.80;;;2.00;;
7659;SDS011;3872;47.902;8.162;2022-08-07T11:00:16;16.63;;;6.60;;
7659;SDS011;3872;47.902;8.162;2022-08-07T11:02:45;8.03;;;3.10;;
7659;SDS011;3872;47.902;8.162;2022-08-07T11:05:30;4.60;;;2.10;;
7659;SDS011;3872;47.902;8.162;2022-08-07T11:08:06;5.00;;;1.90;;
7659;SDS011;3872;47.902;8.162;2022-08-07T11:10:41;7.27;;;2.03;;
7659;SDS011;3872;47.902;8.162;2022-08-07T11:13:13;6.70;;;1.90;;
7659;SDS011;3872;47.902;8.162;2022-08-07T11:15:45;4.20;;;1.63;;
7659;SDS011;3872;47.902;8.162;2022-08-07T11:18:17;6.47;;;2.03;;
7659;SDS011;3872;47.902;8.162;2022-08-07T11:20:48;4.90;;;1.90;;
7659;SDS011;3872;47.902;8.162;2022-08-07T11:23:22;6.17;;;2.33;;
7659;SDS011;3872;47.902;8.162;2022-08-07T11:26:00;4.83;;;1.90;;
7659;SDS011;3872;47.902;8.162;2022-08-07T11:28:34;4.90;;;1.57;;
7659;SDS011;3872;47.902;8.162;2022-08-07T11:31:12;6.23;;;1.57;;
7659;SDS011;3872;47.902;8.162;2022-08-07T11:33:48;4.60;;;1.60;;
7659;SDS011;3872;47.902;8.162;2022-08-07T11:36:25;7.07;;;2.03;;
7659;SDS011;3872;47.902;8.162;2022-08-07T11:39:05;5.07;;;1.90;;
7659;SDS011;3872;47.902;8.162;2022-08-07T11:41:43;7.17;;;2.17;;
7659;SDS011;3872;47.902;8.162;2022-08-07T11:44:21;5.10;;;1.53;;
7659;SDS011;3872;47.902;8.162;2022-08-07T11:46:57;5.10;;;1.80;;
7659;SDS011;3872;47.902;8.162;2022-08-07T11:49:41;5.03;;;1.83;;
7659;SDS011;3872;47.902;8.162;2022-08-07T11:55:23;4.30;;;1.50;;
7659;SDS011;3872;47.902;8.162;2022-08-07T11:58:04;4.70;;;1.80;;
7659;SDS011;3872;47.902;8.162;2022-08-07T12:00:44;10.13;;;1.77;;
7659;SDS011;3872;47.902;8.162;2022-08-07T12:03:41;5.20;;;1.80;;
7659;SDS011;3872;47.902;8.162;2022-08-07T12:06:19;8.00;;;1.97;;
7659;SDS011;3872;47.902;8.162;2022-08-07T12:09:04;4.80;;;1.50;;
7659;SDS011;3872;47.902;8.162;2022-08-07T12:11:38;5.87;;;1.80;;
7659;SDS011;3872;47.902;8.162;2022-08-07T12:14:12;4.27;;;1.37;;
7659;SDS011;3872;47.902;8.162;2022-08-07T12:16:45;5.63;;;1.53;;
7659;SDS011;3872;47.902;8.162;2022-08-07T12:19:26;4.73;;;1.60;;
7659;SDS011;3872;47.902;8.162;2022-08-07T12:22:01;4.73;;;1.53;;
7659;SDS011;3872;47.902;8.162;2022-08-07T12:24:33;4.83;;;1.27;;
7659;SDS011;3872;47.902;8.162;2022-08-07T12:27:07;4.80;;;1.60;;
7659;SDS011;3872;47.902;8.162;2022-08-07T12:29:41;6.10;;;1.63;;
7659;SDS011;3872;47.902;8.162;2022-08-07T12:32:16;6.30;;;1.70;;
7659;SDS011;3872;47.902;8.162;2022-08-07T12:34:47;4.73;;;1.67;;
7659;SDS011;3872;47.902;8.162;2022-08-07T12:37:15;6.23;;;1.73;;
7659;SDS011;3872;47.902;8.162;2022-08-07T12:39:45;6.73;;;1.90;;
7659;SDS011;3872;47.902;8.162;2022-08-07T12:42:14;6.50;;;1.60;;
7659;SDS011;3872;47.902;8.162;2022-08-07T12:44:46;4.17;;;1.40;;
7659;SDS011;3872;47.902;8.162;2022-08-07T12:47:17;6.10;;;1.80;;
7659;SDS011;3872;47.902;8.162;2022-08-07T12:49:51;5.43;;;1.83;;
7659;SDS011;3872;47.902;8.162;2022-08-07T12:52:26;4.20;;;1.50;;
7659;SDS011;3872;47.902;8.162;2022-08-07T12:55:06;4.70;;;1.50;;
7659;SDS011;3872;47.902;8.162;2022-08-07T12:57:36;5.03;;;1.70;;
7659;SDS011;3872;47.902;8.162;2022-08-07T13:00:07;8.10;;;1.67;;
7659;SDS011;3872;47.902;8.162;2022-08-07T13:02:41;4.30;;;1.13;;
7659;SDS011;3872;47.902;8.162;2022-08-07T13:05:29;4.30;;;1.33;;
7659;SDS011;3872;47.902;8.162;2022-08-07T13:08:11;4.80;;;1.40;;
7659;SDS011;3872;47.902;8.162;2022-08-07T13:10:50;4.83;;;1.57;;
7659;SDS011;3872;47.902;8.162;2022-08-07T13:13:31;5.20;;;2.00;;
7659;SDS011;3872;47.902;8.162;2022-08-07T13:16:10;5.80;;;1.63;;
7659;SDS011;3872;47.902;8.162;2022-08-07T13:18:44;4.60;;;1.70;;
7659;SDS011;3872;47.902;8.162;2022-08-07T13:21:19;4.83;;;1.43;;
7659;SDS011;3872;47.902;8.162;2022-08-07T13:23:51;5.90;;;1.80;;
7659;SDS011;3872;47.902;8.162;2022-08-07T13:26:24;4.30;;;1.60;;
7659;SDS011;3872;47.902;8.162;2022-08-07T13:28:58;4.90;;;1.40;;
7659;SDS011;3872;47.902;8.162;2022-08-07T13:31:35;5.00;;;1.80;;
7659;SDS011;3872;47.902;8.162;2022-08-07T13:34:10;4.30;;;1.53;;
7659;SDS011;3872;47.902;8.162;2022-08-07T13:36:42;4.27;;;1.50;;
7659;SDS011;3872;47.902;8.162;2022-08-07T13:39:16;4.40;;;1.37;;
7659;SDS011;3872;47.902;8.162;2022-08-07T13:41:51;5.57;;;1.73;;
7659;SDS011;3872;47.902;8.162;2022-08-07T13:44:20;4.40;;;1.43;;
7659;SDS011;3872;47.902;8.162;2022-08-07T13:46:51;5.87;;;2.07;;
7659;SDS011;3872;47.902;8.162;2022-08-07T13:49:21;4.10;;;1.20;;
7659;SDS011;3872;47.902;8.162;2022-08-07T13:51:50;4.40;;;1.40;;
7659;SDS011;3872;47.902;8.162;2022-08-07T13:54:20;6.67;;;1.93;;
7659;SDS011;3872;47.902;8.162;2022-08-07T13:56:54;5.17;;;1.43;;
7659;SDS011;3872;47.902;8.162;2022-08-07T13:59:23;4.40;;;1.43;;
7659;SDS011;3872;47.902;8.162;2022-08-07T14:01:57;4.30;;;1.33;;
7659;SDS011;3872;47.902;8.162;2022-08-07T14:04:33;4.73;;;1.40;;
7659;SDS011;3872;47.902;8.162;2022-08-07T14:07:04;5.93;;;1.47;;
7659;SDS011;3872;47.902;8.162;2022-08-07T14:09:32;6.10;;;1.40;;
7659;SDS011;3872;47.902;8.162;2022-08-07T14:12:05;5.17;;;1.70;;
7659;SDS011;3872;47.902;8.162;2022-08-07T14:14:38;4.03;;;1.07;;
7659;SDS011;3872;47.902;8.162;2022-08-07T14:17:09;4.80;;;1.60;;
7659;SDS011;3872;47.902;8.162;2022-08-07T14:19:43;4.27;;;1.30;;
7659;SDS011;3872;47.902;8.162;2022-08-07T14:22:15;6.00;;;1.57;;
7659;SDS011;3872;47.902;8.162;2022-08-07T14:24:47;7.33;;;1.70;;
7659;SDS011;3872;47.902;8.162;2022-08-07T14:27:18;4.97;;;1.37;;
7659;SDS011;3872;47.902;8.162;2022-08-07T14:29:54;5.23;;;1.47;;
7659;SDS011;3872;47.902;8.162;2022-08-07T14:32:29;4.23;;;1.13;;
7659;SDS011;3872;47.902;8.162;2022-08-07T14:35:01;4.30;;;1.30;;
7659;SDS011;3872;47.902;8.162;2022-08-07T14:37:29;4.17;;;1.40;;
7659;SDS011;3872;47.902;8.162;2022-08-07T14:39:57;4.23;;;1.33;;
7659;SDS011;3872;47.902;8.162;2022-08-07T14:42:25;4.70;;;1.47;;
7659;SDS011;3872;47.902;8.162;2022-08-07T14:44:54;4.40;;;1.30;;
7659;SDS011;3872;47.902;8.162;2022-08-07T14:47:24;12.30;;;1.43;;
7659;SDS011;3872;47.902;8.162;2022-08-07T14:49:57;5.40;;;1.50;;
7659;SDS011;3872;47.902;8.162;2022-08-07T14:52:24;4.60;;;1.50;;
7659;SDS011;3872;47.902;8.162;2022-08-07T14:54:52;5.10;;;1.50;;
7659;SDS011;3872;47.902;8.162;2022-08-07T14:57:20;4.77;;;1.63;;
7659;SDS011;3872;47.902;8.162;2022-08-07T14:59:50;4.40;;;1.40;;
7659;SDS011;3872;47.902;8.162;2022-08-07T15:02:19;4.90;;;1.50;;
7659;SDS011;3872;47.902;8.162;2022-08-07T15:04:48;4.07;;;1.07;;
7659;SDS011;3872;47.902;8.162;2022-08-07T15:07:18;4.93;;;1.50;;
7659;SDS011;3872;47.902;8.162;2022-08-07T15:09:48;4.60;;;1.40;;
7659;SDS011;3872;47.902;8.162;2022-08-07T15:12:18;6.60;;;1.40;;
7659;SDS011;3872;47.902;8.162;2022-08-07T15:14:48;7.57;;;1.20;;
7659;SDS011;3872;47.902;8.162;2022-08-07T15:17:17;4.77;;;1.40;;
7659;SDS011;3872;47.902;8.162;2022-08-07T15:19:48;6.90;;;1.37;;
7659;SDS011;3872;47.902;8.162;2022-08-07T15:22:18;4.27;;;1.27;;
7659;SDS011;3872;47.902;8.162;2022-08-07T15:24:48;10.23;;;1.50;;
7659;SDS011;3872;47.902;8.162;2022-08-07T15:27:17;4.80;;;1.30;;
7659;SDS011;3872;47.902;8.162;2022-08-07T15:29:48;4.97;;;1.60;;
7659;SDS011;3872;47.902;8.162;2022-08-07T15:32:18;4.70;;;1.37;;
7659;SDS011;3872;47.902;8.162;2022-08-07T15:34:47;4.77;;;1.20;;
7659;SDS011;3872;47.902;8.162;2022-08-07T15:37:16;4.00;;;1.00;;
7659;SDS011;3872;47.902;8.162;2022-08-07T15:39:46;4.73;;;1.00;;
7659;SDS011;3872;47.902;8.162;2022-08-07T15:45:02;4.60;;;1.33;;
7659;SDS011;3872;47.902;8.162;2022-08-07T15:47:31;4.30;;;1.20;;
7659;SDS011;3872;47.902;8.162;2022-08-07T15:49:59;5.07;;;1.30;;
7659;SDS011;3872;47.902;8.162;2022-08-07T15:52:31;7.87;;;1.40;;